sensor_id;sensor_type;location;lat;lon;timestamp;P1;durP1;ratioP1;P2;durP2;ratioP2
19032;SDS011;9649;51.042;13.804;2024-03-07T00:02:24;43.87;;;22.80;;
19032;SDS011;9649;51.042;13.804;2024-03-07T00:07:29;52.20;;;24.73;;
19032;SDS011;9649;51.042;13.804;2024-03-07T00:12:33;60.07;;;24.97;;
19032;SDS011;9649;51.042;13.804;2024-03-07T00:17:37;51.47;;;25.17;;
19032;SDS011;9649;51.042;13.804;2024-03-07T00:22:41;50.70;;;24.47;;
19032;SDS011;9649;51.042;13.804;2024-03-07T00:27:45;51.97;;;26.03;;
19032;SDS011;9649;51.042;13.804;2024-03-07T00:32:48;54.70;;;24.03;;
19032;SDS011;9649;51.042;13.804;2024-03-07T00:37:51;52.70;;;26.47;;
19032;SDS011;9649;51.042;13.804;2024-03-07T00:42:55;51.30;;;25.97;;
19032;SDS011;9649;51.042;13.804;2024-03-07T00:47:59;56.00;;;26.07;;
19032;SDS011;9649;51.042;13.804;2024-03-07T00:53:03;56.57;;;26.20;;
19032;SDS011;9649;51.042;13.804;2024-03-07T00:58:07;58.67;;;27.97;;
19032;SDS011;9649;51.042;13.804;2024-03-07T01:03:10;53.57;;;26.10;;
19032;SDS011;9649;51.042;13.804;2024-03-07T01:08:15;52.27;;;26.47;;
19032;SDS011;9649;51.042;13.804;2024-03-07T01:13:19;54.93;;;25.30;;
19032;SDS011;9649;51.042;13.804;2024-03-07T01:18:23;52.73;;;25.53;;
19032;SDS011;9649;51.042;13.804;2024-03-07T01:23:26;51.10;;;25.47;;
19032;SDS011;9649;51.042;13.804;2024-03-07T01:28:31;49.83;;;24.07;;
19032;SDS011;9649;51.042;13.804;2024-03-07T01:33:34;51.97;;;25.07;;
19032;SDS011;9649;51.042;13.804;2024-03-07T01:38:37;51.80;;;24.90;;
19032;SDS011;9649;51.042;13.804;2024-03-07T01:43:41;54.50;;;25.87;;
19032;SDS011;9649;51.042;13.804;2024-03-07T01:48:44;55.90;;;25.87;;
19032;SDS011;9649;51.042;13.804;2024-03-07T01:53:47;53.63;;;26.93;;
19032;SDS011;9649;51.042;13.804;2024-03-07T01:58:55;53.80;;;25.20;;
19032;SDS011;9649;51.042;13.804;2024-03-07T02:03:58;56.70;;;27.13;;
19032;SDS011;9649;51.042;13.804;2024-03-07T02:09:01;56.33;;;26.27;;
19032;SDS011;9649;51.042;13.804;2024-03-07T02:14:05;59.77;;;26.13;;
19032;SDS011;9649;51.042;13.804;2024-03-07T02:19:09;60.53;;;26.37;;
19032;SDS011;9649;51.042;13.804;2024-03-07T02:24:17;59.87;;;27.60;;
19032;SDS011;9649;51.042;13.804;2024-03-07T02:29:20;53.77;;;26.37;;
19032;SDS011;9649;51.042;13.804;2024-03-07T02:34:23;62.53;;;26.77;;
19032;SDS011;9649;51.042;13.804;2024-03-07T02:39:29;56.27;;;26.50;;
19032;SDS011;9649;51.042;13.804;2024-03-07T02:44:31;54.53;;;25.80;;
19032;SDS011;9649;51.042;13.804;2024-03-07T02:49:36;53.37;;;24.63;;
19032;SDS011;9649;51.042;13.804;2024-03-07T02:54:40;52.73;;;25.93;;
19032;SDS011;9649;51.042;13.804;2024-03-07T02:59:42;53.73;;;26.07;;
19032;SDS011;9649;51.042;13.804;2024-03-07T03:04:45;56.03;;;27.33;;
19032;SDS011;9649;51.042;13.804;2024-03-07T03:09:49;52.37;;;25.77;;
19032;SDS011;9649;51.042;13.804;2024-03-07T03:14:52;59.57;;;28.50;;
19032;SDS011;9649;51.042;13.804;2024-03-07T03:19:55;51.73;;;25.17;;
19032;SDS011;9649;51.042;13.804;2024-03-07T03:24:59;57.77;;;27.97;;
19032;SDS011;9649;51.042;13.804;2024-03-07T03:30:02;57.37;;;26.53;;
19032;SDS011;9649;51.042;13.804;2024-03-07T03:35:06;62.57;;;26.70;;
19032;SDS011;9649;51.042;13.804;2024-03-07T03:40:15;55.07;;;25.73;;
19032;SDS011;9649;51.042;13.804;2024-03-07T03:45:18;58.53;;;27.43;;
19032;SDS011;9649;51.042;13.804;2024-03-07T03:50:22;61.23;;;26.37;;
19032;SDS011;9649;51.042;13.804;2024-03-07T03:55:26;56.80;;;27.03;;
19032;SDS011;9649;51.042;13.804;2024-03-07T04:00:29;58.03;;;27.33;;
19032;SDS011;9649;51.042;13.804;2024-03-07T04:05:32;54.73;;;26.50;;
19032;SDS011;9649;51.042;13.804;2024-03-07T04:10:36;50.67;;;26.30;;
19032;SDS011;9649;51.042;13.804;2024-03-07T04:15:39;49.93;;;25.77;;
19032;SDS011;9649;51.042;13.804;2024-03-07T04:20:45;55.03;;;27.00;;
19032;SDS011;9649;51.042;13.804;2024-03-07T04:25:49;53.77;;;26.93;;
19032;SDS011;9649;51.042;13.804;2024-03-07T04:30:52;57.70;;;27.77;;
19032;SDS011;9649;51.042;13.804;2024-03-07T04:35:55;55.13;;;28.07;;
19032;SDS011;9649;51.042;13.804;2024-03-07T04:40:59;53.40;;;27.83;;
19032;SDS011;9649;51.042;13.804;2024-03-07T04:46:02;63.07;;;30.00;;
19032;SDS011;9649;51.042;13.804;2024-03-07T04:51:08;63.97;;;30.40;;
19032;SDS011;9649;51.042;13.804;2024-03-07T04:56:12;61.03;;;29.83;;
19032;SDS011;9649;51.042;13.804;2024-03-07T05:01:15;55.43;;;28.10;;
19032;SDS011;9649;51.042;13.804;2024-03-07T05:06:18;43.43;;;24.60;;
19032;SDS011;9649;51.042;13.804;2024-03-07T05:11:23;45.70;;;23.13;;
19032;SDS011;9649;51.042;13.804;2024-03-07T05:16:26;43.67;;;22.87;;
19032;SDS011;9649;51.042;13.804;2024-03-07T05:21:29;40.97;;;22.57;;
19032;SDS011;9649;51.042;13.804;2024-03-07T05:26:41;49.67;;;23.70;;
19032;SDS011;9649;51.042;13.804;2024-03-07T05:31:46;44.47;;;24.20;;
19032;SDS011;9649;51.042;13.804;2024-03-07T05:36:49;44.10;;;23.40;;
19032;SDS011;9649;51.042;13.804;2024-03-07T05:41:54;47.47;;;24.77;;
19032;SDS011;9649;51.042;13.804;2024-03-07T05:47:00;53.40;;;26.33;;
19032;SDS011;9649;51.042;13.804;2024-03-07T05:52:03;50.77;;;26.30;;
19032;SDS011;9649;51.042;13.804;2024-03-07T05:57:08;48.13;;;24.80;;
19032;SDS011;9649;51.042;13.804;2024-03-07T06:02:11;47.60;;;24.03;;
19032;SDS011;9649;51.042;13.804;2024-03-07T06:07:16;44.47;;;23.20;;
19032;SDS011;9649;51.042;13.804;2024-03-07T06:12:21;48.20;;;24.13;;
19032;SDS011;9649;51.042;13.804;2024-03-07T06:17:28;45.00;;;23.77;;
19032;SDS011;9649;51.042;13.804;2024-03-07T06:22:31;48.37;;;23.37;;
19032;SDS011;9649;51.042;13.804;2024-03-07T06:27:35;51.77;;;24.17;;
19032;SDS011;9649;51.042;13.804;2024-03-07T06:32:49;47.67;;;24.47;;
19032;SDS011;9649;51.042;13.804;2024-03-07T06:37:52;48.90;;;23.60;;
19032;SDS011;9649;51.042;13.804;2024-03-07T06:42:56;43.77;;;23.60;;
19032;SDS011;9649;51.042;13.804;2024-03-07T06:47:59;42.87;;;23.40;;
19032;SDS011;9649;51.042;13.804;2024-03-07T06:53:02;44.33;;;23.43;;
19032;SDS011;9649;51.042;13.804;2024-03-07T06:58:06;43.07;;;22.27;;
19032;SDS011;9649;51.042;13.804;2024-03-07T07:03:09;42.53;;;21.60;;
19032;SDS011;9649;51.042;13.804;2024-03-07T07:08:14;37.20;;;20.27;;
19032;SDS011;9649;51.042;13.804;2024-03-07T07:13:19;36.27;;;20.43;;
19032;SDS011;9649;51.042;13.804;2024-03-07T07:18:21;38.77;;;20.93;;
19032;SDS011;9649;51.042;13.804;2024-03-07T07:23:25;38.07;;;20.63;;
19032;SDS011;9649;51.042;13.804;2024-03-07T07:28:29;40.10;;;19.07;;
19032;SDS011;9649;51.042;13.804;2024-03-07T07:33:32;34.07;;;17.50;;
19032;SDS011;9649;51.042;13.804;2024-03-07T07:38:35;30.43;;;15.90;;
19032;SDS011;9649;51.042;13.804;2024-03-07T07:43:40;31.93;;;16.90;;
19032;SDS011;9649;51.042;13.804;2024-03-07T07:48:44;31.33;;;16.63;;
19032;SDS011;9649;51.042;13.804;2024-03-07T07:53:47;31.23;;;15.93;;
19032;SDS011;9649;51.042;13.804;2024-03-07T07:58:51;28.73;;;15.20;;
19032;SDS011;9649;51.042;13.804;2024-03-07T08:03:57;26.13;;;13.37;;
19032;SDS011;9649;51.042;13.804;2024-03-07T08:09:00;24.15;;;12.90;;
19032;SDS011;9649;51.042;13.804;2024-03-07T08:14:04;21.08;;;12.15;;
19032;SDS011;9649;51.042;13.804;2024-03-07T08:19:07;17.48;;;11.52;;
19032;SDS011;9649;51.042;13.804;2024-03-07T08:24:12;21.10;;;11.95;;
19032;SDS011;9649;51.042;13.804;2024-03-07T08:29:16;20.75;;;12.63;;
19032;SDS011;9649;51.042;13.804;2024-03-07T08:34:19;17.35;;;11.00;;
19032;SDS011;9649;51.042;13.804;2024-03-07T08:39:22;17.25;;;10.73;;
19032;SDS011;9649;51.042;13.804;2024-03-07T08:44:29;18.08;;;11.43;;
19032;SDS011;9649;51.042;13.804;2024-03-07T08:49:32;16.75;;;11.57;;
19032;SDS011;9649;51.042;13.804;2024-03-07T08:54:35;18.15;;;11.57;;
19032;SDS011;9649;51.042;13.804;2024-03-07T08:59:39;17.85;;;10.27;;
19032;SDS011;9649;51.042;13.804;2024-03-07T09:04:42;15.20;;;9.00;;
19032;SDS011;9649;51.042;13.804;2024-03-07T09:09:45;13.93;;;8.75;;
19032;SDS011;9649;51.042;13.804;2024-03-07T09:14:49;19.42;;;9.70;;
19032;SDS011;9649;51.042;13.804;2024-03-07T09:19:54;15.43;;;9.87;;
19032;SDS011;9649;51.042;13.804;2024-03-07T09:24:57;17.00;;;9.87;;
19032;SDS011;9649;51.042;13.804;2024-03-07T09:30:01;19.90;;;11.47;;
19032;SDS011;9649;51.042;13.804;2024-03-07T09:35:04;20.17;;;10.70;;
19032;SDS011;9649;51.042;13.804;2024-03-07T09:40:13;15.67;;;10.00;;
19032;SDS011;9649;51.042;13.804;2024-03-07T09:45:18;18.97;;;9.57;;
19032;SDS011;9649;51.042;13.804;2024-03-07T09:50:24;16.73;;;10.70;;
19032;SDS011;9649;51.042;13.804;2024-03-07T09:55:31;18.37;;;10.77;;
19032;SDS011;9649;51.042;13.804;2024-03-07T10:00:37;21.43;;;11.50;;
19032;SDS011;9649;51.042;13.804;2024-03-07T10:05:42;19.37;;;11.20;;
19032;SDS011;9649;51.042;13.804;2024-03-07T10:10:46;19.20;;;11.23;;
19032;SDS011;9649;51.042;13.804;2024-03-07T10:15:51;18.27;;;11.40;;
19032;SDS011;9649;51.042;13.804;2024-03-07T10:20:57;20.90;;;12.30;;
19032;SDS011;9649;51.042;13.804;2024-03-07T10:26:01;20.03;;;11.63;;
19032;SDS011;9649;51.042;13.804;2024-03-07T10:31:08;21.20;;;12.33;;
19032;SDS011;9649;51.042;13.804;2024-03-07T10:36:12;21.83;;;12.23;;
19032;SDS011;9649;51.042;13.804;2024-03-07T10:41:16;20.43;;;12.77;;
19032;SDS011;9649;51.042;13.804;2024-03-07T10:46:22;22.70;;;13.10;;
19032;SDS011;9649;51.042;13.804;2024-03-07T10:51:29;30.77;;;15.67;;
19032;SDS011;9649;51.042;13.804;2024-03-07T10:56:41;24.23;;;13.97;;
19032;SDS011;9649;51.042;13.804;2024-03-07T11:01:58;29.40;;;15.03;;
19032;SDS011;9649;51.042;13.804;2024-03-07T11:07:08;27.97;;;15.27;;
19032;SDS011;9649;51.042;13.804;2024-03-07T11:12:12;22.83;;;14.23;;
19032;SDS011;9649;51.042;13.804;2024-03-07T11:17:17;30.00;;;15.03;;
19032;SDS011;9649;51.042;13.804;2024-03-07T11:22:28;68.70;;;30.37;;
19032;SDS011;9649;51.042;13.804;2024-03-07T11:27:33;23.83;;;13.27;;
19032;SDS011;9649;51.042;13.804;2024-03-07T11:32:41;22.93;;;13.43;;
19032;SDS011;9649;51.042;13.804;2024-03-07T11:37:47;21.67;;;13.07;;
19032;SDS011;9649;51.042;13.804;2024-03-07T11:42:53;24.03;;;13.30;;
19032;SDS011;9649;51.042;13.804;2024-03-07T11:47:59;25.80;;;13.23;;
19032;SDS011;9649;51.042;13.804;2024-03-07T11:53:09;26.20;;;14.40;;
19032;SDS011;9649;51.042;13.804;2024-03-07T11:58:12;24.63;;;13.60;;
19032;SDS011;9649;51.042;13.804;2024-03-07T12:03:18;25.47;;;14.03;;
19032;SDS011;9649;51.042;13.804;2024-03-07T12:08:24;24.10;;;13.93;;
19032;SDS011;9649;51.042;13.804;2024-03-07T12:13:27;25.27;;;14.27;;
19032;SDS011;9649;51.042;13.804;2024-03-07T12:18:31;25.60;;;14.10;;
19032;SDS011;9649;51.042;13.804;2024-03-07T12:23:34;23.13;;;13.33;;
19032;SDS011;9649;51.042;13.804;2024-03-07T12:28:41;24.63;;;13.73;;
19032;SDS011;9649;51.042;13.804;2024-03-07T12:33:46;26.13;;;13.70;;
19032;SDS011;9649;51.042;13.804;2024-03-07T12:38:53;23.43;;;12.50;;
19032;SDS011;9649;51.042;13.804;2024-03-07T12:43:57;20.50;;;12.23;;
19032;SDS011;9649;51.042;13.804;2024-03-07T12:49:02;21.10;;;12.40;;
19032;SDS011;9649;51.042;13.804;2024-03-07T12:54:05;23.83;;;11.30;;
19032;SDS011;9649;51.042;13.804;2024-03-07T12:59:09;21.23;;;12.17;;
19032;SDS011;9649;51.042;13.804;2024-03-07T13:04:15;20.50;;;11.03;;
19032;SDS011;9649;51.042;13.804;2024-03-07T13:09:18;20.20;;;11.73;;
19032;SDS011;9649;51.042;13.804;2024-03-07T13:14:28;19.60;;;11.40;;
19032;SDS011;9649;51.042;13.804;2024-03-07T13:19:36;18.67;;;10.77;;
19032;SDS011;9649;51.042;13.804;2024-03-07T13:24:39;17.73;;;11.07;;
19032;SDS011;9649;51.042;13.804;2024-03-07T13:29:43;17.30;;;10.07;;
19032;SDS011;9649;51.042;13.804;2024-03-07T13:34:48;15.50;;;10.00;;
19032;SDS011;9649;51.042;13.804;2024-03-07T13:39:51;17.03;;;9.83;;
19032;SDS011;9649;51.042;13.804;2024-03-07T13:44:53;16.83;;;10.27;;
19032;SDS011;9649;51.042;13.804;2024-03-07T13:49:59;19.47;;;10.60;;
19032;SDS011;9649;51.042;13.804;2024-03-07T13:55:01;19.63;;;10.60;;
19032;SDS011;9649;51.042;13.804;2024-03-07T14:00:15;18.97;;;10.77;;
19032;SDS011;9649;51.042;13.804;2024-03-07T14:05:37;19.57;;;10.10;;
19032;SDS011;9649;51.042;13.804;2024-03-07T14:16:44;18.77;;;10.70;;
19032;SDS011;9649;51.042;13.804;2024-03-07T14:22:16;15.93;;;10.23;;
19032;SDS011;9649;51.042;13.804;2024-03-07T14:27:34;18.83;;;10.47;;
19032;SDS011;9649;51.042;13.804;2024-03-07T14:32:40;21.33;;;11.37;;
19032;SDS011;9649;51.042;13.804;2024-03-07T14:37:52;22.23;;;11.27;;
19032;SDS011;9649;51.042;13.804;2024-03-07T14:43:18;18.40;;;10.63;;
19032;SDS011;9649;51.042;13.804;2024-03-07T14:48:42;16.77;;;10.33;;
19032;SDS011;9649;51.042;13.804;2024-03-07T14:53:59;19.30;;;11.13;;
19032;SDS011;9649;51.042;13.804;2024-03-07T14:59:20;22.77;;;12.37;;
19032;SDS011;9649;51.042;13.804;2024-03-07T15:04:34;20.80;;;11.70;;
19032;SDS011;9649;51.042;13.804;2024-03-07T15:09:58;21.03;;;12.13;;
19032;SDS011;9649;51.042;13.804;2024-03-07T15:15:16;21.07;;;12.03;;
19032;SDS011;9649;51.042;13.804;2024-03-07T15:20:52;20.60;;;11.87;;
19032;SDS011;9649;51.042;13.804;2024-03-07T15:26:03;22.57;;;12.53;;
19032;SDS011;9649;51.042;13.804;2024-03-07T15:31:22;19.93;;;11.83;;
19032;SDS011;9649;51.042;13.804;2024-03-07T15:36:27;20.60;;;11.97;;
19032;SDS011;9649;51.042;13.804;2024-03-07T15:41:35;24.00;;;13.10;;
19032;SDS011;9649;51.042;13.804;2024-03-07T15:46:48;24.27;;;12.20;;
19032;SDS011;9649;51.042;13.804;2024-03-07T15:52:11;24.03;;;13.33;;
19032;SDS011;9649;51.042;13.804;2024-03-07T15:57:31;25.30;;;13.67;;
19032;SDS011;9649;51.042;13.804;2024-03-07T16:03:23;25.20;;;13.57;;
19032;SDS011;9649;51.042;13.804;2024-03-07T16:08:33;25.10;;;13.33;;
19032;SDS011;9649;51.042;13.804;2024-03-07T16:13:47;24.33;;;12.87;;
19032;SDS011;9649;51.042;13.804;2024-03-07T16:19:05;24.80;;;13.47;;
19032;SDS011;9649;51.042;13.804;2024-03-07T16:24:11;25.80;;;13.87;;
19032;SDS011;9649;51.042;13.804;2024-03-07T16:29:16;30.87;;;14.73;;
19032;SDS011;9649;51.042;13.804;2024-03-07T16:34:19;30.80;;;16.27;;
19032;SDS011;9649;51.042;13.804;2024-03-07T16:39:24;23.53;;;14.00;;
19032;SDS011;9649;51.042;13.804;2024-03-07T16:44:28;28.37;;;14.93;;
19032;SDS011;9649;51.042;13.804;2024-03-07T16:49:33;25.07;;;14.67;;
19032;SDS011;9649;51.042;13.804;2024-03-07T16:54:36;30.03;;;15.60;;
19032;SDS011;9649;51.042;13.804;2024-03-07T16:59:40;27.27;;;15.90;;
19032;SDS011;9649;51.042;13.804;2024-03-07T17:04:43;28.40;;;15.93;;
19032;SDS011;9649;51.042;13.804;2024-03-07T17:09:50;26.67;;;15.50;;
19032;SDS011;9649;51.042;13.804;2024-03-07T17:14:54;29.37;;;15.33;;
19032;SDS011;9649;51.042;13.804;2024-03-07T17:19:57;25.63;;;14.87;;
19032;SDS011;9649;51.042;13.804;2024-03-07T17:25:01;24.40;;;14.50;;
19032;SDS011;9649;51.042;13.804;2024-03-07T17:30:07;28.27;;;15.33;;
19032;SDS011;9649;51.042;13.804;2024-03-07T17:35:10;30.40;;;15.73;;
19032;SDS011;9649;51.042;13.804;2024-03-07T17:40:14;29.40;;;15.47;;
19032;SDS011;9649;51.042;13.804;2024-03-07T17:45:19;31.90;;;16.20;;
19032;SDS011;9649;51.042;13.804;2024-03-07T17:50:24;27.30;;;16.77;;
19032;SDS011;9649;51.042;13.804;2024-03-07T17:55:28;32.10;;;16.97;;
19032;SDS011;9649;51.042;13.804;2024-03-07T18:00:36;32.00;;;17.10;;
19032;SDS011;9649;51.042;13.804;2024-03-07T18:05:45;28.50;;;16.40;;
19032;SDS011;9649;51.042;13.804;2024-03-07T18:10:51;33.10;;;17.10;;
19032;SDS011;9649;51.042;13.804;2024-03-07T18:15:56;32.93;;;17.47;;
19032;SDS011;9649;51.042;13.804;2024-03-07T18:21:03;34.63;;;17.00;;
19032;SDS011;9649;51.042;13.804;2024-03-07T18:26:06;30.07;;;17.40;;
19032;SDS011;9649;51.042;13.804;2024-03-07T18:31:12;29.93;;;16.93;;
19032;SDS011;9649;51.042;13.804;2024-03-07T18:36:17;29.77;;;16.50;;
19032;SDS011;9649;51.042;13.804;2024-03-07T18:41:23;31.97;;;17.17;;
19032;SDS011;9649;51.042;13.804;2024-03-07T18:46:30;31.80;;;17.43;;
19032;SDS011;9649;51.042;13.804;2024-03-07T18:51:35;31.37;;;17.17;;
19032;SDS011;9649;51.042;13.804;2024-03-07T18:56:39;36.57;;;17.83;;
19032;SDS011;9649;51.042;13.804;2024-03-07T19:01:46;32.57;;;17.90;;
19032;SDS011;9649;51.042;13.804;2024-03-07T19:06:49;32.97;;;18.70;;
19032;SDS011;9649;51.042;13.804;2024-03-07T19:11:59;33.17;;;18.37;;
19032;SDS011;9649;51.042;13.804;2024-03-07T19:17:06;36.43;;;19.20;;
19032;SDS011;9649;51.042;13.804;2024-03-07T19:22:10;32.27;;;18.47;;
19032;SDS011;9649;51.042;13.804;2024-03-07T19:27:15;33.23;;;18.10;;
19032;SDS011;9649;51.042;13.804;2024-03-07T19:32:22;35.63;;;20.30;;
19032;SDS011;9649;51.042;13.804;2024-03-07T19:37:26;33.60;;;18.17;;
19032;SDS011;9649;51.042;13.804;2024-03-07T19:42:29;36.20;;;19.57;;
19032;SDS011;9649;51.042;13.804;2024-03-07T19:47:33;32.80;;;18.33;;
19032;SDS011;9649;51.042;13.804;2024-03-07T19:52:36;38.87;;;20.53;;
19032;SDS011;9649;51.042;13.804;2024-03-07T19:57:40;33.37;;;18.40;;
19032;SDS011;9649;51.042;13.804;2024-03-07T20:02:48;33.67;;;19.03;;
19032;SDS011;9649;51.042;13.804;2024-03-07T20:07:52;36.17;;;19.23;;
19032;SDS011;9649;51.042;13.804;2024-03-07T20:12:58;34.53;;;18.40;;
19032;SDS011;9649;51.042;13.804;2024-03-07T20:18:06;35.23;;;19.27;;
19032;SDS011;9649;51.042;13.804;2024-03-07T20:23:10;31.93;;;18.27;;
19032;SDS011;9649;51.042;13.804;2024-03-07T20:28:17;34.07;;;19.00;;
19032;SDS011;9649;51.042;13.804;2024-03-07T20:33:23;34.17;;;18.90;;
19032;SDS011;9649;51.042;13.804;2024-03-07T20:38:26;35.13;;;18.70;;
19032;SDS011;9649;51.042;13.804;2024-03-07T20:43:32;36.47;;;18.20;;
19032;SDS011;9649;51.042;13.804;2024-03-07T20:48:37;31.17;;;17.90;;
19032;SDS011;9649;51.042;13.804;2024-03-07T20:53:42;33.50;;;18.03;;
19032;SDS011;9649;51.042;13.804;2024-03-07T20:58:49;36.97;;;18.83;;
19032;SDS011;9649;51.042;13.804;2024-03-07T21:03:56;34.60;;;18.23;;
19032;SDS011;9649;51.042;13.804;2024-03-07T21:09:01;32.83;;;18.43;;
19032;SDS011;9649;51.042;13.804;2024-03-07T21:14:11;35.27;;;19.10;;
19032;SDS011;9649;51.042;13.804;2024-03-07T21:37:32;34.70;;;19.30;;
19032;SDS011;9649;51.042;13.804;2024-03-07T21:42:42;33.90;;;18.50;;
19032;SDS011;9649;51.042;13.804;2024-03-07T21:47:45;35.97;;;20.50;;
19032;SDS011;9649;51.042;13.804;2024-03-07T21:52:50;33.77;;;19.40;;
19032;SDS011;9649;51.042;13.804;2024-03-07T21:58:20;36.60;;;19.77;;
19032;SDS011;9649;51.042;13.804;2024-03-07T22:03:23;33.07;;;18.93;;
19032;SDS011;9649;51.042;13.804;2024-03-07T22:08:27;35.13;;;19.33;;
19032;SDS011;9649;51.042;13.804;2024-03-07T22:13:33;33.87;;;18.00;;
19032;SDS011;9649;51.042;13.804;2024-03-07T22:18:36;34.33;;;18.00;;
19032;SDS011;9649;51.042;13.804;2024-03-07T22:23:40;33.80;;;17.87;;
19032;SDS011;9649;51.042;13.804;2024-03-07T22:28:43;32.93;;;18.07;;
19032;SDS011;9649;51.042;13.804;2024-03-07T22:33:46;34.60;;;19.03;;
19032;SDS011;9649;51.042;13.804;2024-03-07T22:38:52;32.67;;;18.30;;
19032;SDS011;9649;51.042;13.804;2024-03-07T22:43:55;37.10;;;18.43;;
19032;SDS011;9649;51.042;13.804;2024-03-07T22:48:57;36.13;;;19.23;;
19032;SDS011;9649;51.042;13.804;2024-03-07T22:54:03;30.87;;;17.73;;
19032;SDS011;9649;51.042;13.804;2024-03-07T22:59:09;32.83;;;18.10;;
19032;SDS011;9649;51.042;13.804;2024-03-07T23:04:12;33.37;;;17.63;;
19032;SDS011;9649;51.042;13.804;2024-03-07T23:09:16;31.97;;;18.10;;
19032;SDS011;9649;51.042;13.804;2024-03-07T23:14:20;29.70;;;16.70;;
19032;SDS011;9649;51.042;13.804;2024-03-07T23:19:29;34.23;;;18.27;;
19032;SDS011;9649;51.042;13.804;2024-03-07T23:24:34;37.97;;;19.10;;
19032;SDS011;9649;51.042;13.804;2024-03-07T23:29:43;35.57;;;18.33;;
19032;SDS011;9649;51.042;13.804;2024-03-07T23:35:01;34.17;;;18.83;;
19032;SDS011;9649;51.042;13.804;2024-03-07T23:40:21;36.73;;;19.90;;
19032;SDS011;9649;51.042;13.804;2024-03-07T23:45:35;37.20;;;19.67;;
19032;SDS011;9649;51.042;13.804;2024-03-07T23:50:55;37.00;;;19.43;;
19032;SDS011;9649;51.042;13.804;2024-03-07T23:56:15;39.20;;;20.87;;
